MAPA DE AEROPUERTO

INFORMACIÓN METAR y TAF

METAR FOR GVSV
ADDS - METARS form results

(1735 UTC 23 October 2021)
Data provider http://aviationweather.gov/metar/data/
 
METAR text: GVSV 231700Z 05022KT 9000 FEW020 28/19 Q1012 NOSIG
Conditions at: GVSV (S. PEDRO , CV) observed 1700 UTC 23 October 2021
Temperature: 28.0°C (82°F)
Dewpoint: 19.0°C (66°F) [RH = 58%]
Pressure (altimeter): 29.88 inches Hg (1012.0 mb)
Winds: from the NE (50 degrees) at 25 MPH (22 knots; 11.3 m/s)
Visibility: 6 miles ( 9 km)
Ceiling: at least 12,000 feet AGL
Clouds: few clouds at 2000 feet AGL
Weather: no significant weather observed at this time

Forecast for: GVSV (S. PEDRO , CV)
Text: TAF GVSV 231700Z 2318/2424 06020KT 9999 FEW018
Forecast period: 1800 UTC 23 October 2021 to 0000 UTC 25 October 2021
Forecast type: FROM: standard forecast or significant change
Winds: from the ENE (60 degrees) at 23 MPH (20 knots; 10.3 m/s)
Visibility: 6 or more miles (10+ km)
Ceiling: at least 12,000 feet AGL
Clouds: few clouds at 1800 feet AGL
Weather: no significant weather forecast for this period